Time;durP1;ratioP1;P1;durP2;ratioP2;P2;SDS_P1;SDS_P2;PMS_P1;PMS_P2;Temp;Humidity;BMP_temperature;BMP_pressure;BME280_temperature;BME280_humidity;BME280_pressure;Samples;Min_cycle;Max_cycle;Signal;HPM_P1;HPM_P2
2021/12/16 00:08:14;;;;;;;9.40;5.65;;;;;;;-1.49;89.89;99571.78;4979678;28;20041;-78
2021/12/16 00:10:48;;;;;;;7.43;4.72;;;;;;;-1.52;89.49;99574.16;4984993;28;20052;-78
2021/12/16 00:32:27;;;;;;;8.38;4.88;;;;;;;-1.50;90.13;99542.06;4979537;28;20329;-78
2021/12/16 00:34:53;;;;;;;8.38;4.65;;;;;;;-1.52;89.95;99541.09;4966493;28;20140;-78
2021/12/16 00:37:19;;;;;;;7.68;5.07;;;;;;;-1.48;89.92;99530.25;4978585;28;20120;-78
2021/12/16 00:39:45;;;;;;;6.32;4.35;;;;;;;-1.53;89.56;99524.97;4994863;28;20496;-79
2021/12/16 00:42:31;;;;;;;7.13;4.35;;;;;;;-1.52;89.25;99523.28;5011075;28;20068;-78
2021/12/16 00:47:34;;;;;;;6.53;4.30;;;;;;;-1.49;89.02;99513.25;5010635;28;20472;-78
2021/12/16 00:50:21;;;;;;;6.97;3.95;;;;;;;-1.45;88.83;99522.75;4994754;28;20038;-79
2021/12/16 00:55:46;;;;;;;6.55;4.20;;;;;;;-1.50;88.76;99509.84;4994296;28;20124;-78
2021/12/16 00:58:13;;;;;;;8.13;4.55;;;;;;;-1.49;88.61;99496.31;4964236;28;20037;-78
2021/12/16 01:00:50;;;;;;;6.43;4.57;;;;;;;-1.52;87.97;99495.31;4978685;28;20172;-79
2021/12/16 01:03:44;;;;;;;5.88;3.90;;;;;;;-1.48;88.40;99480.25;4979241;28;20181;-78
2021/12/16 01:06:43;;;;;;;7.18;4.55;;;;;;;-1.54;88.23;99483.41;4978480;28;20046;-78
2021/12/16 01:34:06;;;;;;;6.22;4.47;;;;;;;-1.54;88.84;99429.13;4980544;28;20522;-78
2021/12/16 01:36:57;;;;;;;7.05;4.65;;;;;;;-1.56;88.93;99418.00;5010496;28;20049;-78
2021/12/16 01:47:49;;;;;;;7.38;5.30;;;;;;;-1.69;89.11;99406.50;4994026;28;20037;-79
2021/12/16 01:50:19;;;;;;;7.75;5.72;;;;;;;-1.72;89.54;99393.66;4991048;28;20063;-79
2021/12/16 01:55:32;;;;;;;7.30;5.50;;;;;;;-1.72;89.35;99396.19;4993988;28;20034;-79
2021/12/16 01:58:10;;;;;;;8.87;6.23;;;;;;;-1.62;89.74;99397.41;4993513;28;20045;-79
2021/12/16 02:01:19;;;;;;;7.93;5.28;;;;;;;-1.66;89.68;99359.94;4977509;28;20052;-79
2021/12/16 02:03:56;;;;;;;7.15;5.18;;;;;;;-1.70;89.37;99343.69;4996016;28;20125;-79
2021/12/16 02:09:17;;;;;;;7.10;4.35;;;;;;;-1.58;89.04;99349.28;5008859;28;20525;-78
2021/12/16 02:11:53;;;;;;;5.85;4.30;;;;;;;-1.61;88.62;99361.88;5009819;28;20123;-79
2021/12/16 02:33:23;;;;;;;7.20;4.78;;;;;;;-1.52;87.86;99327.44;4988470;28;20044;-79
2021/12/16 02:36:01;;;;;;;8.52;5.10;;;;;;;-1.45;87.97;99321.78;4989071;28;20053;-79
2021/12/16 02:38:33;;;;;;;6.55;4.45;;;;;;;-1.42;87.65;99330.41;4972546;28;20057;-79
2021/12/16 02:40:59;;;;;;;6.88;4.60;;;;;;;-1.44;87.57;99315.88;4974174;28;20523;-79
2021/12/16 02:48:40;;;;;;;6.00;4.35;;;;;;;-1.47;87.24;99316.59;5010196;28;20038;-79
2021/12/16 02:51:10;;;;;;;6.38;4.05;;;;;;;-1.44;87.23;99301.47;4993038;28;20049;-79
2021/12/16 02:53:47;;;;;;;6.63;4.43;;;;;;;-1.46;86.74;99303.09;4993883;28;20078;-78
2021/12/16 02:56:13;;;;;;;7.10;4.20;;;;;;;-1.41;87.05;99313.47;5010011;28;20464;-79
2021/12/16 02:58:40;;;;;;;5.85;4.43;;;;;;;-1.43;86.72;99313.38;4994045;28;20038;-78
2021/12/16 03:01:15;;;;;;;6.38;4.40;;;;;;;-1.38;86.52;99305.91;4977708;28;20047;-79
2021/12/16 03:03:41;;;;;;;6.80;4.50;;;;;;;-1.40;86.31;99308.41;4993534;28;20080;-78
2021/12/16 03:06:09;;;;;;;8.30;5.10;;;;;;;-1.35;86.52;99293.31;4993829;28;20426;-79
2021/12/16 03:08:35;;;;;;;6.32;4.53;;;;;;;-1.43;86.46;99313.38;4993483;28;20409;-79
2021/12/16 03:11:16;;;;;;;6.18;4.15;;;;;;;-1.39;86.60;99299.09;4993681;28;20045;-79
2021/12/16 03:13:57;;;;;;;5.95;4.45;;;;;;;-1.45;86.43;99284.47;5008236;28;20061;-79
2021/12/16 03:16:33;;;;;;;5.75;4.18;;;;;;;-1.43;86.63;99287.94;4993434;28;20043;-79
2021/12/16 03:21:37;;;;;;;6.57;4.68;;;;;;;-1.47;87.10;99280.13;4996277;28;20099;-78
2021/12/16 03:24:41;;;;;;;5.97;4.07;;;;;;;-1.47;86.89;99267.41;4997018;28;20130;-78
2021/12/16 03:27:31;;;;;;;6.18;4.72;;;;;;;-1.49;86.64;99261.41;4997116;28;20069;-79
2021/12/16 03:36:04;;;;;;;5.50;4.38;;;;;;;-1.39;86.60;99238.03;4995991;28;20508;-78
2021/12/16 03:38:30;;;;;;;6.15;4.57;;;;;;;-1.41;86.94;99238.00;4996482;28;20057;-78
2021/12/16 03:40:56;;;;;;;9.18;4.93;;;;;;;-1.36;87.33;99240.72;5012021;28;20136;-79
2021/12/16 03:43:23;;;;;;;7.57;4.68;;;;;;;-1.34;87.37;99231.44;4983330;28;20476;-78
2021/12/16 03:48:43;;;;;;;7.53;5.00;;;;;;;-1.36;88.24;99243.25;5018800;28;20033;-79
2021/12/16 03:51:26;;;;;;;8.32;5.28;;;;;;;-1.37;87.69;99237.28;4999501;28;20397;-79
2021/12/16 03:53:56;;;;;;;8.82;5.63;;;;;;;-1.36;88.20;99239.03;4973173;28;20045;-78
2021/12/16 03:56:25;;;;;;;7.82;5.22;;;;;;;-1.35;88.22;99224.63;4986774;28;20412;-78
2021/12/16 03:59:09;;;;;;;7.10;5.38;;;;;;;-1.34;88.34;99223.81;4976335;28;20041;-78
2021/12/16 04:01:48;;;;;;;8.80;5.85;;;;;;;-1.33;88.28;99205.16;4976092;28;20046;-76
2021/12/16 04:04:21;;;;;;;9.48;5.78;;;;;;;-1.33;88.59;99192.44;4976427;28;20044;-78
2021/12/16 04:06:48;;;;;;;8.77;6.00;;;;;;;-1.35;88.56;99184.78;4959988;28;20421;-78
2021/12/16 04:09:15;;;;;;;11.38;7.45;;;;;;;-1.36;89.18;99177.09;4960086;28;20400;-78
2021/12/16 04:12:03;;;;;;;13.25;7.80;;;;;;;-1.38;90.03;99174.47;4962076;28;20042;-79
2021/12/16 04:14:30;;;;;;;11.75;8.40;;;;;;;-1.42;90.90;99176.84;4984021;28;20132;-77
2021/12/16 04:16:56;;;;;;;;;;;;;;;-1.36;91.13;99172.88;4979558;28;20065;-77
2021/12/16 04:19:33;;;;;;;10.85;7.80;;;;;;;-1.37;91.38;99185.56;5009826;28;19927;-77
2021/12/16 04:22:11;;;;;;;13.40;7.32;;;;;;;-1.36;91.36;99172.00;4995270;28;20088;-77
2021/12/16 04:24:38;;;;;;;13.52;7.78;;;;;;;-1.28;91.60;99165.53;4979314;28;20045;-77
2021/12/16 04:27:06;;;;;;;11.73;8.00;;;;;;;-1.30;91.94;99164.56;4995163;28;20033;-77
2021/12/16 04:29:32;;;;;;;12.45;7.43;;;;;;;-1.32;92.60;99156.91;4995115;28;20128;-78
2021/12/16 04:31:58;;;;;;;13.30;7.90;;;;;;;-1.27;92.33;99159.59;4979026;28;20133;-77
2021/12/16 04:34:25;;;;;;;11.32;8.18;;;;;;;-1.33;92.65;99159.38;4994962;28;20080;-78
2021/12/16 04:36:50;;;;;;;13.27;8.00;;;;;;;-1.30;92.65;99167.97;4979014;28;20068;-77
2021/12/16 04:39:19;;;;;;;12.35;7.78;;;;;;;-1.35;93.06;99151.69;4978753;28;20046;-78
2021/12/16 04:41:46;;;;;;;11.82;7.22;;;;;;;-1.38;93.27;99159.22;4978790;28;20041;-77
2021/12/16 04:44:12;;;;;;;;;;;;;;;-1.40;93.19;99173.56;4979074;28;20038;-78
2021/12/16 04:46:38;;;;;;;11.48;7.03;;;;;;;-1.32;93.61;99163.69;4994780;28;20376;-77
2021/12/16 04:49:06;;;;;;;12.25;7.65;;;;;;;-1.28;93.12;99160.44;4994567;28;20205;-78
2021/12/16 04:51:39;;;;;;;11.80;7.50;;;;;;;-1.28;93.13;99180.78;4995477;28;20030;-78
2021/12/16 04:54:06;;;;;;;12.48;8.07;;;;;;;-1.28;93.06;99180.78;4978609;28;20073;-78
2021/12/16 04:56:33;;;;;;;11.02;7.15;;;;;;;-1.25;93.17;99169.81;4994479;28;20510;-79
2021/12/16 04:59:08;;;;;;;14.85;7.72;;;;;;;-1.20;92.75;99158.13;4994932;28;20416;-78
2021/12/16 05:01:37;;;;;;;11.20;7.55;;;;;;;-1.21;92.59;99141.13;4994518;28;20181;-77
2021/12/16 05:04:03;;;;;;;11.50;7.18;;;;;;;-1.26;92.53;99107.91;4994567;28;20040;-79
2021/12/16 05:06:29;;;;;;;10.90;7.20;;;;;;;-1.25;92.48;99109.63;4978045;28;20468;-78
2021/12/16 05:08:55;;;;;;;10.07;7.60;;;;;;;-1.26;92.89;99107.03;4995003;28;20049;-77
2021/12/16 05:11:33;;;;;;;11.38;6.30;;;;;;;-1.19;92.89;99124.22;4979756;28;20116;-77
2021/12/16 05:13:59;;;;;;;10.10;6.80;;;;;;;-1.29;92.42;99123.03;4995252;28;20040;-78
2021/12/16 05:16:26;;;;;;;9.95;6.57;;;;;;;-1.29;92.85;99129.00;4978505;28;20040;-78
2021/12/16 05:18:55;;;;;;;10.73;6.35;;;;;;;-1.25;92.92;99139.28;4994798;28;20041;-79
2021/12/16 05:24:28;;;;;;;10.50;6.70;;;;;;;-1.26;92.48;99140.97;5007022;28;20096;-77
2021/12/16 05:27:05;;;;;;;9.38;6.13;;;;;;;-1.31;92.47;99128.09;4997571;28;20064;-78
2021/12/16 05:29:31;;;;;;;7.78;5.78;;;;;;;-1.26;92.20;99118.06;4978868;28;20053;-79
2021/12/16 05:32:01;;;;;;;9.57;6.20;;;;;;;-1.29;92.76;99123.03;4978882;28;20432;-78
2021/12/16 05:34:27;;;;;;;8.73;5.65;;;;;;;-1.25;93.02;99119.78;5010284;28;20119;-78
2021/12/16 05:36:54;;;;;;;9.05;6.10;;;;;;;-1.24;92.75;99108.78;4994243;28;20030;-78
2021/12/16 05:39:20;;;;;;;8.88;5.82;;;;;;;-1.19;93.12;99114.03;4993831;28;20049;-78
2021/12/16 05:41:51;;;;;;;8.60;6.00;;;;;;;-1.23;93.18;99100.38;4978679;28;20045;-77
2021/12/16 05:44:21;;;;;;;8.55;5.93;;;;;;;-1.14;93.65;99098.13;4978530;28;20042;-79
2021/12/16 05:46:49;;;;;;;;;;;;;;;-1.17;93.37;99082.75;4978811;28;20087;-79
2021/12/16 05:49:16;;;;;;;8.90;6.15;;;;;;;-1.15;93.30;99083.66;5010096;28;19917;-78
2021/12/16 05:51:48;;;;;;;7.80;5.20;;;;;;;-1.12;93.50;99077.81;5010797;28;20042;-78
2021/12/16 05:54:16;;;;;;;8.60;5.00;;;;;;;-1.13;93.41;99078.63;5009935;28;20049;-77
2021/12/16 05:57:00;;;;;;;8.82;5.50;;;;;;;-1.07;93.53;99077.13;4997650;28;20468;-78
2021/12/16 05:59:26;;;;;;;8.35;5.45;;;;;;;-1.11;93.48;99088.03;4994702;28;20046;-83
2021/12/16 06:01:51;;;;;;;;;;;;;;;-1.14;93.74;99071.81;4995220;28;20044;-78
2021/12/16 06:04:23;;;;;;;8.82;5.55;;;;;;;-1.06;93.45;99075.47;5010907;28;20356;-81
2021/12/16 06:06:53;;;;;;;8.32;5.18;;;;;;;-1.02;93.86;99073.06;4994439;28;20038;-76
2021/12/16 06:09:19;;;;;;;;;;;;;;;-1.00;93.61;99072.28;4994492;28;20026;-77
2021/12/16 06:11:46;;;;;;;8.60;6.10;;;;;;;-1.07;92.95;99072.06;5010412;28;20273;-81
2021/12/16 06:27:46;;;;;;;7.93;5.63;;;;;;;-1.00;92.55;99079.91;4987476;28;20428;-80
2021/12/16 06:30:13;;;;;;;7.35;5.60;;;;;;;-1.02;92.29;99052.69;5014232;28;20037;-78
2021/12/16 06:32:39;;;;;;;8.77;5.63;;;;;;;-1.00;92.08;99049.34;5014875;28;20041;-76
2021/12/16 06:35:06;;;;;;;7.50;5.20;;;;;;;-0.99;91.93;99076.53;4963591;28;20045;-78
2021/12/16 06:37:31;;;;;;;7.57;5.45;;;;;;;-0.99;92.06;99061.25;4975699;28;20512;-79
2021/12/16 06:39:57;;;;;;;8.45;5.45;;;;;;;-1.00;92.14;99060.41;4989040;28;20061;-80
2021/12/16 06:42:28;;;;;;;8.93;5.43;;;;;;;-1.01;91.99;99056.09;4966652;28;20057;-78
2021/12/16 06:45:04;;;;;;;8.70;5.68;;;;;;;-0.97;92.23;99039.25;4975169;28;20755;-81
2021/12/16 06:47:39;;;;;;;9.15;5.40;;;;;;;-0.96;92.10;99035.88;4992559;28;20091;-80
2021/12/16 06:50:05;;;;;;;8.50;5.47;;;;;;;-0.93;92.04;99028.34;4973445;28;20134;-80
2021/12/16 06:52:37;;;;;;;8.10;6.00;;;;;;;-0.91;91.99;99019.09;4970413;28;20185;-79
2021/12/16 06:55:14;;;;;;;8.65;6.78;;;;;;;-0.97;91.99;99023.97;4972334;28;20120;-80
2021/12/16 06:57:51;;;;;;;10.32;5.90;;;;;;;-0.91;92.29;99027.59;5011590;28;20045;-79
2021/12/16 07:00:28;;;;;;;9.80;6.47;;;;;;;-0.77;92.12;99038.22;5003257;28;20512;-78
2021/12/16 07:03:02;;;;;;;7.57;5.35;;;;;;;-0.85;91.52;99019.28;4979157;28;20042;-78
2021/12/16 07:05:31;;;;;;;6.80;5.18;;;;;;;-0.77;91.70;99030.56;4982185;28;20049;-78
2021/12/16 07:07:57;;;;;;;8.23;5.90;;;;;;;-0.83;91.82;99023.59;4997399;28;20041;-78
2021/12/16 07:10:23;;;;;;;;;;;;;;;-0.81;91.98;99023.66;4981432;28;20076;-78
2021/12/16 07:12:49;;;;;;;7.90;5.50;;;;;;;-0.75;91.48;99023.81;5012814;28;19913;-79
2021/12/16 07:15:24;;;;;;;8.00;5.75;;;;;;;-0.77;91.50;99030.56;4996705;28;20050;-79
2021/12/16 07:17:50;;;;;;;9.13;5.78;;;;;;;-0.74;91.51;99033.19;5014685;28;20119;-79
2021/12/16 07:20:18;;;;;;;9.05;5.93;;;;;;;-0.81;91.29;99031.28;4996790;28;20124;-78
2021/12/16 07:22:44;;;;;;;8.45;5.93;;;;;;;-0.82;91.66;99029.56;4996408;28;20045;-79
2021/12/16 07:25:10;;;;;;;;;;;;;;;-0.82;92.09;99039.75;4996464;28;20343;-78
2021/12/16 07:27:36;;;;;;;9.23;6.07;;;;;;;-0.76;91.78;99032.28;5013401;28;19952;-77
2021/12/16 07:30:05;;;;;;;;;;;;;;;-0.80;91.75;99035.56;5012330;28;20448;-78
2021/12/16 07:32:31;;;;;;;8.43;5.68;;;;;;;-0.80;91.92;99022.81;4997181;28;19917;-79
2021/12/16 07:34:56;;;;;;;7.15;5.22;;;;;;;-0.73;91.94;99028.97;4996485;28;20080;-78
2021/12/16 07:37:22;;;;;;;8.50;6.20;;;;;;;-0.75;92.02;99016.19;4996160;28;20508;-77
2021/12/16 07:39:49;;;;;;;8.13;6.20;;;;;;;-0.72;91.68;99030.72;4979484;28;20069;-77
2021/12/16 07:42:24;;;;;;;9.15;6.20;;;;;;;-0.71;92.12;99046.03;4980076;28;20048;-78
2021/12/16 07:44:50;;;;;;;7.82;5.68;;;;;;;-0.70;91.97;99039.25;4981015;28;20046;-79
2021/12/16 07:47:15;;;;;;;7.63;5.43;;;;;;;-0.65;91.76;99040.25;5012463;28;20044;-79
2021/12/16 07:49:42;;;;;;;8.38;6.10;;;;;;;-0.66;91.77;99047.03;4996238;28;20038;-78
2021/12/16 07:52:08;;;;;;;;;;;;;;;-0.63;91.58;99036.94;4996684;28;20046;-78
2021/12/16 07:54:34;;;;;;;8.90;6.20;;;;;;;-0.63;91.73;99021.66;5012124;28;19979;-78
2021/12/16 07:57:00;;;;;;;9.07;6.05;;;;;;;-0.67;91.71;99019.84;4979242;28;20045;-78
2021/12/16 07:59:27;;;;;;;8.88;5.82;;;;;;;-0.66;91.67;99007.97;4995258;28;20041;-78
2021/12/16 08:01:53;;;;;;;9.23;5.93;;;;;;;-0.57;91.83;99013.31;4995428;28;20129;-78
2021/12/16 08:04:22;;;;;;;8.15;5.72;;;;;;;-0.58;91.73;99012.47;5011864;28;20091;-77
2021/12/16 08:06:50;;;;;;;7.82;5.15;;;;;;;-0.55;91.79;99019.31;4979528;28;20042;-81
2021/12/16 08:09:15;;;;;;;11.13;6.50;;;;;;;-0.56;91.51;99013.38;5013801;28;20488;-78
2021/12/16 08:11:41;;;;;;;6.93;4.93;;;;;;;-0.50;91.80;98997.41;4979395;28;20034;-79
2021/12/16 08:14:07;;;;;;;8.65;6.32;;;;;;;-0.56;92.03;99003.19;4978957;28;20054;-80
2021/12/16 08:16:33;;;;;;;8.70;6.47;;;;;;;-0.53;92.06;98998.19;4995685;28;20060;-79
2021/12/16 08:18:59;;;;;;;10.02;5.80;;;;;;;-0.53;91.97;98998.19;5011337;28;20038;-79
2021/12/16 08:21:28;;;;;;;9.98;6.53;;;;;;;-0.51;92.14;98996.53;5011590;28;20088;-80
2021/12/16 08:24:00;;;;;;;12.32;6.55;;;;;;;-0.53;92.04;98995.63;4979639;28;20049;-81
2021/12/16 08:26:27;;;;;;;9.30;6.53;;;;;;;-0.54;92.19;98993.06;5011763;28;20072;-81
2021/12/16 08:28:52;;;;;;;;;;;;;;;-0.50;92.09;99002.50;5011851;28;20037;-79
2021/12/16 08:31:18;;;;;;;11.05;5.85;;;;;;;-0.46;92.53;98983.06;5012854;28;20380;-78
2021/12/16 08:33:43;;;;;;;8.35;5.82;;;;;;;-0.39;92.42;98970.53;4994945;28;20121;-78
2021/12/16 08:36:09;;;;;;;10.88;7.00;;;;;;;-0.42;92.45;98965.34;5012295;28;20034;-78
2021/12/16 08:38:35;;;;;;;10.80;6.43;;;;;;;-0.30;92.58;98964.84;5010980;28;20054;-78
2021/12/16 08:41:07;;;;;;;12.05;6.70;;;;;;;-0.31;92.17;98968.22;4995330;28;20042;-77
2021/12/16 08:43:35;;;;;;;10.48;6.43;;;;;;;-0.30;92.62;98962.28;4979243;28;20460;-78
2021/12/16 08:46:01;;;;;;;9.55;6.05;;;;;;;-0.31;92.48;98963.13;4978876;28;20405;-79
2021/12/16 08:48:27;;;;;;;11.50;5.68;;;;;;;-0.36;92.80;98965.53;5012223;28;20041;-78
2021/12/16 08:50:52;;;;;;;12.48;6.45;;;;;;;-0.37;93.02;98963.78;4978451;28;20045;-78
2021/12/16 08:53:19;;;;;;;11.27;6.60;;;;;;;-0.35;93.25;98956.22;4994908;28;20077;-77
2021/12/16 08:55:45;;;;;;;9.55;5.68;;;;;;;-0.31;93.48;98952.94;4994920;28;20413;-77
2021/12/16 08:58:11;;;;;;;10.20;6.20;;;;;;;-0.33;93.45;98950.31;4994187;28;20042;-78
2021/12/16 09:00:43;;;;;;;11.45;6.93;;;;;;;-0.32;93.79;98935.88;5010768;28;20041;-79
2021/12/16 09:03:09;;;;;;;10.13;6.38;;;;;;;-0.34;94.02;98932.44;5010525;28;20572;-78
2021/12/16 09:05:36;;;;;;;9.18;6.10;;;;;;;-0.28;94.12;98935.16;5010781;28;20033;-78
2021/12/16 09:08:02;;;;;;;9.00;5.68;;;;;;;-0.24;94.49;98929.31;5010599;28;20161;-77
2021/12/16 09:10:31;;;;;;;14.18;6.82;;;;;;;-0.21;94.07;98913.25;5010860;28;20489;-80
2021/12/16 09:13:02;;;;;;;12.07;7.60;;;;;;;-0.24;94.16;98908.94;4994831;28;20560;-78
2021/12/16 09:15:36;;;;;;;12.48;8.00;;;;;;;-0.24;94.24;98903.84;5012139;28;20489;-81
2021/12/16 09:18:02;;;;;;;13.75;8.07;;;;;;;-0.23;95.06;98890.25;5010855;28;20037;-79
2021/12/16 09:20:28;;;;;;;11.13;6.80;;;;;;;-0.27;94.70;98902.09;4994249;28;20038;-77
2021/12/16 09:22:54;;;;;;;13.43;7.70;;;;;;;-0.23;95.02;98894.50;4994759;28;20034;-79
2021/12/16 09:25:20;;;;;;;13.13;6.82;;;;;;;-0.26;94.84;98882.56;5011028;28;20038;-78
2021/12/16 09:27:46;;;;;;;12.63;6.47;;;;;;;-0.28;95.15;98879.94;5010448;28;20171;-78
2021/12/16 09:30:14;;;;;;;9.02;6.88;;;;;;;-0.18;95.20;98890.38;4993814;28;20484;-79
2021/12/16 09:32:40;;;;;;;11.05;6.75;;;;;;;-0.17;94.77;98889.59;4994123;28;20042;-77
2021/12/16 09:35:06;;;;;;;10.02;6.63;;;;;;;-0.22;95.12;98871.63;5011588;28;20079;-79
2021/12/16 09:37:32;;;;;;;9.80;6.53;;;;;;;-0.23;94.57;98880.06;4994057;28;20049;-81
2021/12/16 09:39:58;;;;;;;10.35;6.47;;;;;;;-0.17;94.75;98872.59;5010443;28;20496;-79
2021/12/16 09:42:26;;;;;;;11.75;6.45;;;;;;;-0.15;94.79;98870.09;4993974;28;20170;-78
2021/12/16 09:44:53;;;;;;;9.80;6.05;;;;;;;-0.16;94.47;98879.41;4993955;28;20036;-79
2021/12/16 09:47:21;;;;;;;8.02;5.53;;;;;;;-0.16;94.37;98856.47;4978104;28;20128;-77
2021/12/16 09:49:47;;;;;;;9.02;5.75;;;;;;;-0.10;94.47;98866.81;5026509;28;20030;-78
2021/12/16 09:52:13;;;;;;;7.68;5.93;;;;;;;-0.20;94.18;98849.56;5011622;28;20478;-78
2021/12/16 09:54:41;;;;;;;8.85;6.13;;;;;;;-0.12;94.13;98845.53;5014112;28;20041;-77
2021/12/16 09:57:07;;;;;;;9.75;5.88;;;;;;;-0.08;94.31;98844.78;4998089;28;20038;-78
2021/12/16 09:59:33;;;;;;;8.68;6.43;;;;;;;-0.12;94.20;98842.13;4998024;28;20056;-77
2021/12/16 10:02:00;;;;;;;11.02;5.82;;;;;;;-0.06;94.33;98848.22;5015400;28;20046;-79
2021/12/16 10:04:31;;;;;;;8.10;5.57;;;;;;;-0.03;94.37;98830.47;4981596;28;20514;-78
2021/12/16 10:06:58;;;;;;;10.55;5.80;;;;;;;-0.06;94.21;98835.47;4997870;28;20041;-78
2021/12/16 10:09:24;;;;;;;10.13;6.10;;;;;;;-0.07;94.00;98836.31;4997659;28;20030;-79
2021/12/16 10:11:52;;;;;;;9.80;6.88;;;;;;;-0.10;94.41;98833.69;5015508;28;20188;-79
2021/12/16 10:14:33;;;;;;;9.60;5.95;;;;;;;-0.08;94.64;98833.75;5015137;28;20065;-78
2021/12/16 10:19:44;;;;;;;10.57;7.05;;;;;;;-0.02;94.22;98821.13;5013873;28;20562;-78
2021/12/16 10:22:37;;;;;;;9.18;5.93;;;;;;;-0.07;94.19;98821.03;5013975;28;20048;-79
2021/12/16 10:25:42;;;;;;;8.82;5.30;;;;;;;-0.04;94.48;98815.16;4996040;28;20045;-79
2021/12/16 10:28:12;;;;;;;9.18;6.15;;;;;;;-0.06;94.53;98804.88;4977486;28;20133;-80
2021/12/16 10:31:05;;;;;;;10.57;5.72;;;;;;;0.01;94.88;98802.50;5013723;28;20041;-79
2021/12/16 10:33:32;;;;;;;9.25;5.78;;;;;;;0.03;94.82;98806.81;4995523;28;20393;-77
2021/12/16 10:36:16;;;;;;;8.88;5.45;;;;;;;-0.01;94.51;98794.81;4997120;28;20033;-78
2021/12/16 10:38:47;;;;;;;10.13;5.32;;;;;;;0.02;94.25;98805.09;5013569;28;20046;-78
2021/12/16 10:41:17;;;;;;;8.25;5.35;;;;;;;0.02;94.29;98806.78;4997983;28;20537;-78
2021/12/16 10:44:17;;;;;;;7.38;5.05;;;;;;;0.03;94.48;98785.53;4998121;28;20046;-80
2021/12/16 10:46:59;;;;;;;8.00;5.38;;;;;;;0.02;94.54;98786.38;5011353;28;20045;-78
2021/12/16 10:49:33;;;;;;;8.10;5.97;;;;;;;0.02;94.02;98792.34;4996392;28;20411;-78
2021/12/16 10:52:13;;;;;;;7.85;4.75;;;;;;;0.04;94.39;98780.47;5012999;28;20041;-79
2021/12/16 10:54:44;;;;;;;8.40;4.80;;;;;;;0.09;93.91;98778.03;4996699;28;20042;-78
2021/12/16 10:57:13;;;;;;;7.75;5.30;;;;;;;0.08;94.30;98779.72;4996901;28;20038;-78
2021/12/16 10:59:50;;;;;;;8.35;5.88;;;;;;;0.05;94.32;98776.25;5014322;28;20053;-79
2021/12/16 11:02:17;;;;;;;8.45;5.18;;;;;;;0.10;94.50;98777.22;4996707;28;20527;-77
2021/12/16 11:04:48;;;;;;;8.80;5.60;;;;;;;0.10;94.76;98759.38;5011478;28;20408;-79
2021/12/16 11:07:22;;;;;;;7.70;5.28;;;;;;;0.11;94.47;98763.63;5013207;28;20403;-81
2021/12/16 11:09:55;;;;;;;9.82;4.85;;;;;;;0.08;94.40;98773.75;5013868;28;20033;-77
2021/12/16 11:12:24;;;;;;;8.50;5.28;;;;;;;0.12;94.86;98770.47;5014245;28;20095;-78
2021/12/16 11:15:01;;;;;;;8.80;4.72;;;;;;;0.15;94.83;98760.34;5013486;28;20447;-81
2021/12/16 11:17:31;;;;;;;8.30;4.68;;;;;;;0.17;94.54;98754.44;5013974;28;20042;-83
2021/12/16 11:20:27;;;;;;;7.03;4.22;;;;;;;0.13;94.37;98744.97;4965044;28;20037;-79
2021/12/16 11:22:58;;;;;;;6.20;4.53;;;;;;;0.18;94.77;98762.94;5014209;28;20129;-78
2021/12/16 11:25:32;;;;;;;7.22;3.90;;;;;;;0.12;95.07;98738.16;5012825;28;20041;-78
2021/12/16 11:28:05;;;;;;;8.43;4.80;;;;;;;0.16;94.88;98745.06;5013377;28;20069;-79
2021/12/16 11:30:41;;;;;;;6.47;4.90;;;;;;;0.17;95.22;98744.22;5014329;28;20503;-81
2021/12/16 11:33:09;;;;;;;6.97;4.38;;;;;;;0.12;94.75;98750.06;5013108;28;20042;-78
2021/12/16 11:35:38;;;;;;;6.00;4.15;;;;;;;0.04;94.92;98716.72;4996616;28;20497;-79
2021/12/16 11:38:10;;;;;;;6.47;4.70;;;;;;;-0.02;95.05;98704.72;4995951;28;20049;-79
2021/12/16 11:41:07;;;;;;;7.22;4.43;;;;;;;0.07;95.18;98688.75;4996195;28;20045;-80
2021/12/16 11:44:06;;;;;;;6.53;4.53;;;;;;;0.02;95.59;98671.63;4996420;28;20045;-79
2021/12/16 11:46:52;;;;;;;9.02;5.03;;;;;;;0.05;95.74;98651.31;5006829;28;20293;-81
2021/12/16 11:49:33;;;;;;;6.63;4.50;;;;;;;0.03;95.81;98652.97;4996105;28;20057;-79
2021/12/16 11:52:07;;;;;;;6.18;4.28;;;;;;;0.08;95.50;98653.91;4979585;28;20038;-80
2021/12/16 11:54:34;;;;;;;6.22;3.92;;;;;;;0.07;95.78;98658.16;4995975;28;20465;-79
2021/12/16 11:57:09;;;;;;;7.50;4.82;;;;;;;0.07;95.41;98650.50;5013260;28;20164;-77
2021/12/16 11:59:38;;;;;;;6.80;4.63;;;;;;;0.08;95.76;98667.53;4995653;28;20042;-84
2021/12/16 12:02:04;;;;;;;7.40;4.55;;;;;;;0.14;96.18;98684.66;5011973;28;20045;-81
2021/12/16 12:04:34;;;;;;;6.10;4.55;;;;;;;0.14;96.19;98685.53;4963671;28;20075;-77
2021/12/16 12:07:09;;;;;;;6.32;4.63;;;;;;;0.12;96.09;98676.97;4995533;28;20515;-78
2021/12/16 12:09:38;;;;;;;6.72;4.20;;;;;;;0.20;95.99;98679.69;5010471;28;20034;-79
2021/12/16 12:12:04;;;;;;;7.82;5.00;;;;;;;0.15;96.10;98673.63;4995681;28;20030;-79
2021/12/16 12:14:32;;;;;;;7.93;4.68;;;;;;;0.20;96.03;98678.00;4996251;28;20045;-77
2021/12/16 12:17:03;;;;;;;6.65;4.32;;;;;;;0.21;95.92;98687.34;5012669;28;20044;-80
2021/12/16 12:19:29;;;;;;;7.47;5.13;;;;;;;0.22;96.05;98700.97;5011444;28;20048;-79
2021/12/16 12:21:56;;;;;;;8.85;5.45;;;;;;;0.18;95.57;98684.75;4995526;28;20042;-78
2021/12/16 12:24:27;;;;;;;8.77;5.15;;;;;;;0.16;95.91;98688.97;5012882;28;20046;-78
2021/12/16 12:26:56;;;;;;;7.75;5.05;;;;;;;0.20;96.00;98685.66;4995107;28;20152;-79
2021/12/16 12:29:27;;;;;;;9.93;5.20;;;;;;;0.17;95.99;98677.06;5011528;28;20053;-78
2021/12/16 12:31:59;;;;;;;9.25;5.60;;;;;;;0.16;95.93;98671.09;4995872;28;20045;-78
2021/12/16 12:34:25;;;;;;;9.27;4.95;;;;;;;0.19;96.37;98672.88;4979842;28;20496;-82
2021/12/16 12:36:52;;;;;;;8.32;5.78;;;;;;;0.16;96.24;98673.66;5012410;28;20046;-79
2021/12/16 12:39:20;;;;;;;8.30;5.10;;;;;;;0.18;96.26;98664.38;4995110;28;20053;-79
2021/12/16 12:41:46;;;;;;;7.68;5.00;;;;;;;0.18;96.08;98663.47;5012642;28;20038;-81
2021/12/16 12:44:12;;;;;;;8.45;5.65;;;;;;;0.21;96.33;98674.59;4994909;28;20052;-78
2021/12/16 12:46:39;;;;;;;;;;;;;;;0.22;96.00;98670.38;4995156;28;20042;-79
2021/12/16 12:49:07;;;;;;;7.32;4.68;;;;;;;0.19;96.10;98671.19;5012195;28;19921;-79
2021/12/16 12:51:47;;;;;;;7.88;5.22;;;;;;;0.17;96.08;98666.84;5011225;28;20496;-78
2021/12/16 12:54:31;;;;;;;11.00;6.20;;;;;;;0.18;96.63;98668.56;4994910;28;20496;-79
2021/12/16 12:56:59;;;;;;;7.70;5.00;;;;;;;0.22;96.20;98667.81;4994968;28;20420;-80
2021/12/16 12:59:36;;;;;;;9.93;5.40;;;;;;;0.22;96.24;98673.78;5011488;28;20138;-78
2021/12/16 13:02:16;;;;;;;10.52;5.82;;;;;;;0.18;96.29;98668.56;4995163;28;20493;-79
2021/12/16 13:05:12;;;;;;;8.75;5.15;;;;;;;0.21;96.29;98695.00;5012453;28;20091;-79
2021/12/16 13:07:39;;;;;;;9.27;5.47;;;;;;;0.22;96.56;98689.06;4991541;28;20497;-78
2021/12/16 13:10:17;;;;;;;8.23;5.38;;;;;;;0.21;96.77;98668.66;5012179;28;20030;-78
2021/12/16 13:13:13;;;;;;;8.85;6.35;;;;;;;0.22;96.70;98658.47;5012262;28;20739;-78
2021/12/16 13:15:49;;;;;;;9.27;5.22;;;;;;;0.26;96.69;98656.84;4994573;28;20045;-78
2021/12/16 13:28:58;;;;;;;10.35;5.75;;;;;;;0.25;97.51;98667.88;4994173;28;20030;-81
2021/12/16 13:31:44;;;;;;;9.35;5.13;;;;;;;0.24;97.78;98663.63;4995224;28;20042;-79
2021/12/16 13:34:32;;;;;;;8.65;4.82;;;;;;;0.24;97.49;98656.81;5012199;28;20042;-78
2021/12/16 13:37:03;;;;;;;7.70;5.00;;;;;;;0.22;98.20;98640.63;5012040;28;20102;-78
2021/12/16 13:39:30;;;;;;;8.23;5.13;;;;;;;0.22;98.31;98648.25;4994704;28;20053;-78
2021/12/16 13:41:58;;;;;;;6.55;4.47;;;;;;;0.19;98.05;98642.25;4995069;28;20038;-79
2021/12/16 13:44:38;;;;;;;8.85;4.78;;;;;;;0.18;98.23;98643.06;5011734;28;20042;-80
2021/12/16 13:47:18;;;;;;;5.97;4.13;;;;;;;0.21;98.40;98643.16;5012238;28;20508;-80
2021/12/16 14:01:36;;;;;;;6.97;4.57;;;;;;;0.22;98.52;98619.34;4996452;28;20060;-79
2021/12/16 14:04:38;;;;;;;5.47;3.92;;;;;;;0.22;98.32;98617.66;4998741;28;20049;-78
2021/12/16 14:10:15;;;;;;;5.72;3.95;;;;;;;0.25;98.53;98614.31;5012316;28;20386;-79
2021/12/16 14:16:00;;;;;;;6.00;3.70;;;;;;;0.29;98.77;98611.00;5011563;28;20033;-78
2021/12/16 14:24:18;;;;;;;6.13;4.70;;;;;;;0.24;98.57;98602.41;4997386;28;20129;-77
2021/12/16 14:27:18;;;;;;;6.82;4.43;;;;;;;0.24;98.96;98597.31;5011173;28;20088;-78
2021/12/16 14:50:10;;;;;;;7.13;4.68;;;;;;;0.25;99.07;98581.16;5014624;28;20065;-78
2021/12/16 14:52:36;;;;;;;;;;;;;;;0.24;98.60;98590.50;5030149;28;20105;-79
2021/12/16 14:55:10;;;;;;;6.15;4.55;;;;;;;0.26;98.93;98580.34;4996840;28;19917;-78
2021/12/16 14:57:41;;;;;;;7.20;5.03;;;;;;;0.31;98.97;98581.28;5013620;28;20042;-79